createdAt,value
2022-10-18T00:00:50.281Z,96584.56
2022-10-18T00:03:16.840Z,96591.41
2022-10-18T00:05:43.443Z,96574.09
2022-10-18T00:08:10.312Z,96591.41
2022-10-18T00:10:37.083Z,96598.75
2022-10-18T00:13:04.114Z,96584.44
2022-10-18T00:15:30.748Z,96589.75
2022-10-18T00:17:57.287Z,96585.72
2022-10-18T00:20:23.927Z,96585.00
2022-10-18T00:22:50.606Z,96583.72
2022-10-18T00:25:17.636Z,96598.75
2022-10-18T00:27:44.213Z,96601.59
2022-10-18T00:30:12.744Z,96588.72
2022-10-18T00:32:43.592Z,96591.81
2022-10-18T00:35:10.218Z,96601.88
2022-10-18T00:37:36.765Z,96598.56
2022-10-18T00:40:04.464Z,96591.75
2022-10-18T00:42:34.578Z,96597.19
2022-10-18T00:45:30.715Z,96590.66
2022-10-18T00:48:02.604Z,96584.72
2022-10-18T00:50:33.655Z,96602.72
2022-10-18T00:53:05.777Z,96611.38
2022-10-18T00:55:34.141Z,96597.31
2022-10-18T00:58:01.594Z,96580.03
2022-10-18T01:00:28.288Z,96583.69
2022-10-18T01:02:55.084Z,96588.97
2022-10-18T01:05:21.904Z,96585.78
2022-10-18T01:08:14.236Z,96580.09
2022-10-18T01:11:11.411Z,96572.22
2022-10-18T01:13:43.629Z,96574.47
2022-10-18T01:16:29.967Z,96573.22
2022-10-18T01:19:34.790Z,96592.09
2022-10-18T01:22:21.633Z,96579.75
2022-10-18T01:25:15.836Z,96565.06
2022-10-18T01:28:15.859Z,96578.47
2022-10-18T01:31:30.528Z,96570.44
2022-10-18T01:36:35.256Z,96547.94
2022-10-18T01:39:08.736Z,96546.38
2022-10-18T01:41:39.612Z,96524.66
2022-10-18T01:44:09.494Z,96521.25
2022-10-18T01:46:37.591Z,96531.31
2022-10-18T01:49:04.608Z,96526.25
2022-10-18T01:51:34.124Z,96513.38
2022-10-18T01:54:02.041Z,96526.25
2022-10-18T01:56:59.001Z,96540.28
2022-10-18T01:59:35.244Z,96530.50
2022-10-18T02:02:07.427Z,96530.50
2022-10-18T02:04:53.547Z,96552.84
2022-10-18T02:07:32.525Z,96561.72
2022-10-18T02:10:16.408Z,96550.34
2022-10-18T02:12:45.302Z,96560.28
2022-10-18T02:15:16.248Z,96549.38
2022-10-18T02:17:45.335Z,96532.34
2022-10-18T02:20:14.834Z,96520.97
2022-10-18T02:22:45.908Z,96526.94
2022-10-18T02:25:18.142Z,96529.91
2022-10-18T02:27:44.932Z,96502.94
2022-10-18T02:30:12.855Z,96498.75
2022-10-18T02:32:50.323Z,96505.09
2022-10-18T02:35:25.236Z,96487.88
2022-10-18T02:37:53.905Z,96469.66
2022-10-18T02:40:20.919Z,96481.78
2022-10-18T02:42:51.155Z,96488.59
2022-10-18T02:45:18.011Z,96483.47
2022-10-18T02:47:44.837Z,96493.59
2022-10-18T02:50:12.308Z,96490.38
2022-10-18T02:52:39.965Z,96491.16
2022-10-18T02:55:08.603Z,96477.63
2022-10-18T02:57:35.585Z,96484.44
2022-10-18T03:00:04.949Z,96480.47
2022-10-18T03:02:31.526Z,96483.50
2022-10-18T03:04:58.250Z,96468.41
2022-10-18T03:07:24.857Z,96484.97
2022-10-18T03:09:51.625Z,96489.44
2022-10-18T03:12:18.240Z,96479.22
2022-10-18T03:14:44.872Z,96468.94
2022-10-18T03:17:11.512Z,96476.81
2022-10-18T03:19:38.787Z,96484.75
2022-10-18T03:22:05.652Z,96479.63
2022-10-18T03:24:32.276Z,96484.66
2022-10-18T03:26:58.848Z,96485.97
2022-10-18T03:29:25.475Z,96490.50
2022-10-18T03:31:52.086Z,96484.25
2022-10-18T03:34:18.705Z,96492.56
2022-10-18T03:36:45.327Z,96497.81
2022-10-18T03:39:12.796Z,96499.81
2022-10-18T03:41:39.660Z,96494.38
2022-10-18T03:44:06.211Z,96501.78
2022-10-18T03:46:32.795Z,96503.22
2022-10-18T03:48:59.521Z,96501.09
2022-10-18T03:51:26.148Z,96495.09
2022-10-18T03:53:52.692Z,96511.03
2022-10-18T03:56:19.321Z,96507.78
2022-10-18T03:58:45.893Z,96492.28
2022-10-18T04:01:12.711Z,96478.91
2022-10-18T04:03:41.529Z,96486.03
2022-10-18T04:06:09.955Z,96493.97
2022-10-18T04:08:38.803Z,96487.00
2022-10-18T04:11:11.336Z,96485.44
2022-10-18T04:13:38.223Z,96494.41
2022-10-18T04:16:04.913Z,96491.00
2022-10-18T04:18:31.616Z,96484.28
2022-10-18T04:20:58.772Z,96487.16
2022-10-18T04:23:25.549Z,96489.78
2022-10-18T04:25:52.196Z,96481.16
2022-10-18T04:28:18.918Z,96473.22
2022-10-18T04:30:50.390Z,96483.34
2022-10-18T04:33:17.583Z,96483.34
2022-10-18T04:35:44.392Z,96471.22
2022-10-18T04:38:10.948Z,96475.72
2022-10-18T04:40:37.684Z,96476.09
2022-10-18T04:43:04.253Z,96483.06
2022-10-18T04:45:30.885Z,96464.41
2022-10-18T04:47:57.665Z,96489.44
2022-10-18T04:50:26.621Z,96503.53
2022-10-18T04:52:55.869Z,96489.44
2022-10-18T04:55:24.840Z,96485.69
2022-10-18T04:57:52.995Z,96500.09
2022-10-18T05:00:22.022Z,96499.91
2022-10-18T05:02:48.636Z,96480.84
2022-10-18T05:05:15.437Z,96507.50
2022-10-18T05:07:42.111Z,96517.13
2022-10-18T05:10:09.315Z,96520.13
2022-10-18T05:12:37.675Z,96512.84
2022-10-18T05:15:04.606Z,96506.66
2022-10-18T05:17:31.764Z,96502.69
2022-10-18T05:20:00.810Z,96495.56
2022-10-18T05:22:27.486Z,96484.22
2022-10-18T05:24:54.032Z,96506.72
2022-10-18T05:27:20.612Z,96496.00
2022-10-18T05:29:47.181Z,96486.25
2022-10-18T05:32:13.825Z,96479.44
2022-10-18T05:34:40.391Z,96486.25
2022-10-18T05:37:07.317Z,96495.47
2022-10-18T05:39:33.977Z,96491.22
2022-10-18T05:42:00.742Z,96491.16
2022-10-18T05:44:27.371Z,96490.44
2022-10-18T05:46:56.245Z,96493.25
2022-10-18T05:49:22.915Z,96481.47
2022-10-18T05:51:50.691Z,96501.22
2022-10-18T05:54:18.524Z,96497.38
2022-10-18T05:56:45.173Z,96485.31
2022-10-18T05:59:12.347Z,96493.41
2022-10-18T06:01:40.493Z,96496.78
2022-10-18T06:04:07.710Z,96504.88
2022-10-18T06:06:34.352Z,96491.38
2022-10-18T06:09:03.330Z,96505.34
2022-10-18T06:11:30.952Z,96517.47
2022-10-18T06:14:00.591Z,96503.84
2022-10-18T06:16:32.002Z,96500.97
2022-10-18T06:19:00.058Z,96511.50
2022-10-18T06:21:27.639Z,96522.91
2022-10-18T06:23:56.348Z,96511.75
2022-10-18T06:26:23.220Z,96520.22
2022-10-18T06:28:50.034Z,96523.69
2022-10-18T06:31:17.298Z,96530.72
2022-10-18T06:33:45.651Z,96522.78
2022-10-18T06:36:24.792Z,96534.84
2022-10-18T06:38:53.496Z,96537.84
2022-10-18T06:41:20.624Z,96524.59
2022-10-18T06:43:51.060Z,96536.41
2022-10-18T06:46:17.770Z,96551.03
2022-10-18T06:48:44.337Z,96558.28
2022-10-18T06:51:15.156Z,96548.63
2022-10-18T06:53:44.637Z,96559.91
2022-10-18T06:56:25.588Z,96566.75
2022-10-18T06:58:52.242Z,96556.63
2022-10-18T07:01:19.150Z,96561.31
2022-10-18T07:03:49.476Z,96563.16
2022-10-18T07:06:18.772Z,96554.03
2022-10-18T07:08:46.344Z,96538.97
2022-10-18T07:11:23.896Z,96546.91
2022-10-18T07:13:50.962Z,96545.00
2022-10-18T07:16:19.358Z,96543.75
2022-10-18T07:18:52.682Z,96533.09
2022-10-18T07:21:21.872Z,96529.31
2022-10-18T07:23:49.060Z,96520.50
2022-10-18T07:26:35.179Z,96498.84
2022-10-18T07:29:10.679Z,96515.72
2022-10-18T07:31:38.753Z,96512.63
2022-10-18T07:34:06.772Z,96508.06
2022-10-18T07:36:33.990Z,96493.72
2022-10-18T07:39:00.564Z,96510.22
2022-10-18T07:41:27.403Z,96514.41
2022-10-18T07:43:54.017Z,96511.53
2022-10-18T07:46:22.036Z,96509.28
2022-10-18T07:48:48.866Z,96515.81
2022-10-18T07:51:20.380Z,96520.00
2022-10-18T07:53:47.433Z,96515.69
2022-10-18T07:56:16.573Z,96523.31
2022-10-18T07:58:44.765Z,96532.47
2022-10-18T08:01:12.784Z,96527.31
2022-10-18T08:03:39.717Z,96528.13
2022-10-18T08:06:09.675Z,96546.56
2022-10-18T08:08:37.805Z,96546.22
2022-10-18T08:11:25.443Z,96549.22
2022-10-18T08:13:53.920Z,96569.91
2022-10-18T08:16:23.894Z,96585.28
2022-10-18T08:18:50.710Z,96569.41
2022-10-18T08:21:19.467Z,96580.22
2022-10-18T08:23:46.857Z,96592.50
2022-10-18T08:26:16.885Z,96601.56
2022-10-18T08:28:53.605Z,96596.63
2022-10-18T08:31:25.730Z,96625.09
2022-10-18T08:33:54.284Z,96618.88
2022-10-18T08:36:22.983Z,96619.19
2022-10-18T08:38:49.765Z,96644.16
2022-10-18T08:41:16.343Z,96648.41
2022-10-18T08:44:07.307Z,96649.78
2022-10-18T08:46:37.311Z,96660.03
2022-10-18T08:49:05.546Z,96675.28
2022-10-18T08:51:44.793Z,96687.56
2022-10-18T08:54:16.524Z,96676.25
2022-10-18T08:56:49.291Z,96710.75
2022-10-18T08:59:16.055Z,96732.38
2022-10-18T09:01:45.482Z,96722.63
2022-10-18T09:04:33.483Z,96743.56
2022-10-18T09:07:26.268Z,96772.44
2022-10-18T09:10:28.360Z,96774.66
2022-10-18T09:13:16.480Z,96786.78
2022-10-18T09:15:49.641Z,96811.06
2022-10-18T09:18:23.816Z,96816.69
2022-10-18T09:20:59.438Z,96870.09
2022-10-18T09:23:48.391Z,96950.41
2022-10-18T09:26:19.544Z,97001.66
2022-10-18T09:29:01.322Z,97062.72
2022-10-18T09:31:36.771Z,97164.22
2022-10-18T09:34:12.253Z,97173.81
2022-10-18T09:36:39.493Z,97178.09
2022-10-18T09:39:12.324Z,97243.38
2022-10-18T09:41:55.484Z,97272.06
2022-10-18T09:44:35.241Z,97335.44
2022-10-18T09:47:13.391Z,97466.47
2022-10-18T09:49:46.387Z,97522.88
2022-10-18T09:52:29.350Z,97644.56
2022-10-18T09:55:02.481Z,97708.38
2022-10-18T09:57:46.869Z,97696.28
2022-10-18T10:00:43.592Z,97744.03
2022-10-18T10:03:14.923Z,97754.41
2022-10-18T10:05:42.753Z,97810.19
2022-10-18T10:08:12.256Z,97855.81
2022-10-18T10:10:45.523Z,97853.53
2022-10-18T10:13:22.990Z,97909.53
2022-10-18T10:15:58.745Z,97961.63
2022-10-18T10:18:31.190Z,97928.09
2022-10-18T10:21:01.332Z,97944.78
2022-10-18T10:23:36.592Z,97945.72
2022-10-18T10:26:23.528Z,97921.41
2022-10-18T10:28:50.813Z,97993.03
2022-10-18T10:31:31.720Z,97994.50
2022-10-18T10:33:59.821Z,97970.78
2022-10-18T10:36:26.695Z,97981.19
2022-10-18T10:39:23.893Z,97978.00
2022-10-18T10:41:56.560Z,98082.53
2022-10-18T10:44:30.399Z,98097.13
2022-10-18T10:46:58.140Z,98127.41
2022-10-18T10:49:40.740Z,98196.78
2022-10-18T10:52:28.275Z,98188.19
2022-10-18T10:57:49.377Z,98181.63
2022-10-18T11:00:33.860Z,98171.72
2022-10-18T11:03:29.541Z,98164.06
2022-10-18T11:06:02.227Z,98167.34
2022-10-18T11:08:36.121Z,98183.63
2022-10-18T11:11:27.956Z,98194.06
2022-10-18T11:17:08.106Z,98226.03
2022-10-18T11:19:46.657Z,98264.75
2022-10-18T11:22:19.711Z,98248.00
2022-10-18T11:24:46.773Z,98245.75
2022-10-18T11:27:22.388Z,98275.84
2022-10-18T11:30:35.951Z,98293.75
2022-10-18T11:33:11.472Z,98322.78
2022-10-18T11:35:55.133Z,98332.63
2022-10-18T11:38:56.524Z,98352.09
2022-10-18T11:41:54.926Z,98367.47
2022-10-18T11:44:37.129Z,98355.41
2022-10-18T11:47:23.622Z,98355.97
2022-10-18T11:50:12.895Z,98349.19
2022-10-18T11:52:56.396Z,98361.84
2022-10-18T11:55:35.858Z,98381.50
2022-10-18T11:58:17.265Z,98357.44
2022-10-18T12:00:52.452Z,98383.63
2022-10-18T12:03:21.798Z,98373.16
2022-10-18T12:05:51.058Z,98384.03
2022-10-18T12:08:20.731Z,98368.88
2022-10-18T12:11:09.972Z,98347.06
2022-10-18T12:13:43.238Z,98351.78
2022-10-18T12:16:11.224Z,98353.97
2022-10-18T12:18:48.657Z,98411.66
2022-10-18T12:21:21.897Z,98415.53
2022-10-18T12:23:54.898Z,98409.69
2022-10-18T12:26:22.392Z,98422.72
2022-10-18T12:29:03.474Z,98429.41
2022-10-18T12:31:40.817Z,98454.75
2022-10-18T12:34:21.613Z,98480.31
2022-10-18T12:37:34.537Z,98494.84
2022-10-18T12:40:21.156Z,98490.72
2022-10-18T12:42:51.198Z,98494.44
2022-10-18T12:45:26.078Z,98487.84
2022-10-18T12:47:52.997Z,98530.91
2022-10-18T12:50:37.388Z,98523.25
2022-10-18T12:53:10.583Z,98559.91
2022-10-18T12:55:39.646Z,98561.56
2022-10-18T12:58:28.444Z,98563.84
2022-10-18T13:00:59.492Z,98591.94
2022-10-18T13:03:26.053Z,98639.28
2022-10-18T13:05:54.365Z,98650.09
2022-10-18T13:08:27.966Z,98645.25
2022-10-18T13:11:14.525Z,98667.53
2022-10-18T13:13:59.217Z,98650.84
2022-10-18T13:16:25.848Z,98678.41
2022-10-18T13:19:23.721Z,98683.56
2022-10-18T13:22:15.046Z,98674.03
2022-10-18T13:25:00.400Z,98682.78
2022-10-18T13:27:52.012Z,98673.63
2022-10-18T13:30:18.606Z,98697.09
2022-10-18T13:33:03.178Z,98687.31
2022-10-18T13:36:02.589Z,98676.69
2022-10-18T13:38:34.336Z,98645.13
2022-10-18T13:41:05.753Z,98632.28
2022-10-18T13:43:56.269Z,98647.59
2022-10-18T13:46:22.759Z,98639.03
2022-10-18T13:48:59.722Z,98666.50
2022-10-18T13:51:42.439Z,98662.06
2022-10-18T13:54:38.518Z,98686.50
2022-10-18T13:57:23.668Z,98713.03
2022-10-18T14:00:17.332Z,98736.22
2022-10-18T14:03:22.215Z,98718.56
2022-10-18T14:06:24.780Z,98745.50
2022-10-18T14:09:26.275Z,98751.50
2022-10-18T14:12:11.935Z,98746.09
2022-10-18T14:14:55.664Z,98739.00
2022-10-18T14:17:46.703Z,98729.25
2022-10-18T14:20:24.771Z,98736.94
2022-10-18T14:23:08.220Z,98745.13
2022-10-18T14:25:37.680Z,98728.50
2022-10-18T14:28:08.939Z,98734.22
2022-10-18T14:30:52.747Z,98740.59
2022-10-18T14:33:27.982Z,98736.47
2022-10-18T14:36:09.058Z,98721.50
2022-10-18T14:38:55.256Z,98727.56
2022-10-18T14:41:25.744Z,98722.44
2022-10-18T14:43:54.063Z,98693.13
2022-10-18T14:46:24.131Z,98691.34
2022-10-18T14:49:03.684Z,98706.50
2022-10-18T14:51:37.052Z,98701.38
2022-10-18T14:54:04.331Z,98697.56
2022-10-18T14:56:36.622Z,98694.88
2022-10-18T14:59:10.713Z,98704.41
2022-10-18T15:01:39.350Z,98716.41
2022-10-18T15:04:10.426Z,98705.41
2022-10-18T15:06:43.288Z,98716.72
2022-10-18T15:09:12.956Z,98712.56
2022-10-18T15:11:43.895Z,98714.63
2022-10-18T15:14:16.741Z,98707.31
2022-10-18T15:16:45.910Z,98696.47
2022-10-18T15:19:15.165Z,98667.25
2022-10-18T15:22:19.715Z,98658.66
2022-10-18T15:24:44.261Z,98632.97
2022-10-18T15:27:33.616Z,98600.72
2022-10-18T15:30:21.795Z,98591.22
2022-10-18T15:32:51.755Z,98596.66
2022-10-18T15:35:26.545Z,98568.22
2022-10-18T15:37:58.205Z,98572.03
2022-10-18T15:40:24.719Z,98562.50
2022-10-18T15:43:00.421Z,98541.53
2022-10-18T15:45:28.022Z,98502.81
2022-10-18T15:48:03.025Z,98499.31
2022-10-18T15:50:45.236Z,98485.75
2022-10-18T15:53:21.708Z,98501.72
2022-10-18T15:56:03.588Z,98513.78
2022-10-18T15:58:44.330Z,98508.59
2022-10-18T16:01:15.239Z,98509.75
2022-10-18T16:03:42.861Z,98529.53
2022-10-18T16:06:15.911Z,98556.06
2022-10-18T16:08:51.101Z,98571.03
2022-10-18T16:11:25.923Z,98595.75
2022-10-18T16:13:56.425Z,98636.75
2022-10-18T16:16:29.080Z,98662.22
2022-10-18T16:18:56.563Z,98677.38
2022-10-18T16:21:25.865Z,98704.09
2022-10-18T16:23:53.241Z,98703.84
2022-10-18T16:26:21.240Z,98696.03
2022-10-18T16:28:48.749Z,98723.38
2022-10-18T16:31:21.357Z,98709.34
2022-10-18T16:33:49.900Z,98680.66
2022-10-18T16:36:18.542Z,98674.75
2022-10-18T16:38:45.700Z,98626.16
2022-10-18T16:41:15.964Z,98575.03
2022-10-18T16:43:46.715Z,98567.88
2022-10-18T16:46:20.216Z,98536.13
2022-10-18T16:48:47.752Z,98480.78
2022-10-18T16:51:14.716Z,98486.19
2022-10-18T16:53:43.484Z,98490.09
2022-10-18T16:56:17.436Z,98469.53
2022-10-18T16:58:45.168Z,98463.53
2022-10-18T17:01:17.818Z,98439.19
2022-10-18T17:03:45.195Z,98446.66
2022-10-18T17:06:33.418Z,98471.47
2022-10-18T17:09:00.187Z,98396.53
2022-10-18T17:11:28.447Z,98399.59
2022-10-18T17:13:55.225Z,98364.22
2022-10-18T17:16:31.136Z,98323.81
2022-10-18T17:19:02.242Z,98308.56
2022-10-18T17:21:29.795Z,98324.75
2022-10-18T17:24:00.598Z,98323.34
2022-10-18T17:26:29.332Z,98335.78
2022-10-18T17:28:59.509Z,98351.88
2022-10-18T17:31:26.468Z,98336.13
2022-10-18T17:33:55.450Z,98359.63
2022-10-18T17:36:22.286Z,98384.66
2022-10-18T17:38:53.084Z,98417.50
2022-10-18T17:41:20.600Z,98446.22
2022-10-18T17:43:48.419Z,98454.59
2022-10-18T17:46:15.989Z,98450.28
2022-10-18T17:48:45.117Z,98480.13
2022-10-18T17:51:14.633Z,98527.31
2022-10-18T17:53:42.083Z,98540.00
2022-10-18T17:56:10.264Z,98574.91
2022-10-18T17:58:37.109Z,98585.09
2022-10-18T18:01:17.505Z,98597.66
2022-10-18T18:03:44.744Z,98608.25
2022-10-18T18:06:21.559Z,98633.06
2022-10-18T18:08:49.331Z,98623.53
2022-10-18T18:11:16.644Z,98665.72
2022-10-18T18:13:43.332Z,98697.03
2022-10-18T18:16:14.255Z,98695.28
2022-10-18T18:18:41.072Z,98703.09
2022-10-18T18:21:07.836Z,98757.16
2022-10-18T18:23:34.399Z,98764.41
2022-10-18T18:26:01.030Z,98786.78
2022-10-18T18:28:27.829Z,98815.84
2022-10-18T18:30:54.432Z,98808.88
2022-10-18T18:33:21.200Z,98798.44
2022-10-18T18:35:57.772Z,98830.44
2022-10-18T18:38:25.282Z,98837.69
2022-10-18T18:41:06.627Z,98853.78
2022-10-18T18:43:36.132Z,98863.50
2022-10-18T18:46:02.975Z,98882.13
2022-10-18T18:48:32.131Z,98882.56
2022-10-18T18:50:58.888Z,98912.84
2022-10-18T18:53:29.528Z,98942.00
2022-10-18T18:56:02.048Z,98931.44
2022-10-18T18:58:28.595Z,98965.59
2022-10-18T19:00:55.218Z,98978.97
2022-10-18T19:03:21.783Z,98962.53
2022-10-18T19:05:48.316Z,99002.34
2022-10-18T19:08:14.912Z,98999.47
2022-10-18T19:10:41.467Z,98993.28
2022-10-18T19:13:08.092Z,99021.25
2022-10-18T19:15:34.719Z,99016.56
2022-10-18T19:18:01.275Z,99001.88
2022-10-18T19:20:27.927Z,98989.06
2022-10-18T19:22:54.553Z,98949.41
2022-10-18T19:25:23.434Z,98937.25
2022-10-18T19:27:52.878Z,99001.31
2022-10-18T19:30:19.863Z,99026.31
2022-10-18T19:32:46.560Z,99031.00
2022-10-18T19:35:13.173Z,99072.13
2022-10-18T19:37:40.782Z,99091.25
2022-10-18T19:40:07.892Z,99076.63
2022-10-18T19:42:35.995Z,99112.91
2022-10-18T19:45:03.300Z,99115.53
2022-10-18T19:47:29.841Z,99113.56
2022-10-18T19:49:57.017Z,99143.09
2022-10-18T19:52:23.687Z,99140.84
2022-10-18T19:54:50.331Z,99136.19
2022-10-18T19:57:17.029Z,99170.53
2022-10-18T19:59:43.592Z,99184.19
2022-10-18T20:02:16.031Z,99198.41
2022-10-18T20:04:42.659Z,99231.81
2022-10-18T20:07:09.275Z,99236.69
2022-10-18T20:09:36.456Z,99239.34
2022-10-18T20:12:03.244Z,99265.53
2022-10-18T20:14:29.837Z,99262.53
2022-10-18T20:16:58.364Z,99273.81
2022-10-18T20:19:24.924Z,99291.13
2022-10-18T20:21:51.629Z,99296.44
2022-10-18T20:24:18.181Z,99303.97
2022-10-18T20:26:45.076Z,99330.94
2022-10-18T20:29:12.677Z,99332.53
2022-10-18T20:31:39.617Z,99336.03
2022-10-18T20:34:09.116Z,99352.56
2022-10-18T20:36:35.918Z,99346.06
2022-10-18T20:39:04.548Z,99350.41
2022-10-18T20:41:36.454Z,99359.31
2022-10-18T20:44:05.532Z,99356.59
2022-10-18T20:46:34.809Z,99352.56
2022-10-18T20:49:01.971Z,99365.28
2022-10-18T20:51:30.844Z,99363.59
2022-10-18T20:53:59.608Z,99374.69
2022-10-18T20:56:27.266Z,99381.69
2022-10-18T20:58:56.351Z,99378.66
2022-10-18T21:01:24.918Z,99380.06
2022-10-18T21:03:54.419Z,99393.00
2022-10-18T21:06:38.337Z,99384.06
2022-10-18T21:09:16.876Z,99390.31
2022-10-18T21:11:45.727Z,99381.75
2022-10-18T21:14:14.658Z,99369.84
2022-10-18T21:16:43.878Z,99382.78
2022-10-18T21:19:14.557Z,99380.66
2022-10-18T21:21:44.102Z,99362.31
2022-10-18T21:24:12.571Z,99372.59
2022-10-18T21:26:39.514Z,99379.59
2022-10-18T21:29:06.494Z,99376.56
2022-10-18T21:31:39.236Z,99395.47
2022-10-18T21:34:13.339Z,99394.13
2022-10-18T21:36:41.053Z,99388.69
2022-10-18T21:39:10.787Z,99401.13
2022-10-18T21:41:40.085Z,99389.03
2022-10-18T21:44:10.626Z,99377.19
2022-10-18T21:46:39.441Z,99386.59
2022-10-18T21:49:07.268Z,99367.81
2022-10-18T21:51:34.819Z,99365.63
2022-10-18T21:54:02.239Z,99365.38
2022-10-18T21:56:31.472Z,99359.78
2022-10-18T21:58:58.660Z,99355.13
2022-10-18T22:01:36.116Z,99363.25
2022-10-18T22:04:05.145Z,99354.94
2022-10-18T22:09:05.766Z,99347.41
2022-10-18T22:11:48.431Z,99342.56
2022-10-18T22:14:15.078Z,99343.06
2022-10-18T22:16:41.670Z,99348.75
2022-10-18T22:19:08.349Z,99361.66
2022-10-18T22:21:41.235Z,99357.06
2022-10-18T22:24:15.317Z,99356.00
2022-10-18T22:26:43.750Z,99354.94
2022-10-18T22:29:14.105Z,99344.72
2022-10-18T22:31:44.194Z,99353.84
2022-10-18T22:34:14.098Z,99349.56
2022-10-18T22:36:41.215Z,99350.63
2022-10-18T22:39:10.188Z,99363.00
2022-10-18T22:41:36.932Z,99360.03
2022-10-18T22:44:04.180Z,99362.47
2022-10-18T22:46:33.982Z,99356.53
2022-10-18T22:49:00.639Z,99358.69
2022-10-18T22:51:29.398Z,99353.59
2022-10-18T22:53:57.256Z,99356.81
2022-10-18T22:56:24.335Z,99359.22
2022-10-18T22:58:51.028Z,99351.16
2022-10-18T23:01:20.403Z,99354.91
2022-10-18T23:03:47.277Z,99361.66
2022-10-18T23:06:25.669Z,99356.00
2022-10-18T23:08:54.202Z,99352.78
2022-10-18T23:11:21.207Z,99369.19
2022-10-18T23:13:49.795Z,99356.03
2022-10-18T23:16:17.070Z,99350.91
2022-10-18T23:18:46.098Z,99354.69
2022-10-18T23:21:13.764Z,99347.41
2022-10-18T23:23:42.510Z,99350.06
2022-10-18T23:26:17.774Z,99354.94
2022-10-18T23:28:46.476Z,99352.78
2022-10-18T23:31:19.742Z,99351.13
2022-10-18T23:33:49.088Z,99362.72
2022-10-18T23:36:16.696Z,99351.16
2022-10-18T23:38:43.572Z,99351.13
2022-10-18T23:41:12.818Z,99362.44
2022-10-18T23:43:40.184Z,99372.13
2022-10-18T23:46:06.955Z,99369.91
2022-10-18T23:48:34.337Z,99381.00
2022-10-18T23:51:01.781Z,99385.56
2022-10-18T23:53:30.210Z,99374.22
2022-10-18T23:56:03.159Z,99376.94
2022-10-18T23:58:31.693Z,99371.59
